createdAt,value
2018-10-09T00:00:44.471Z,0.00
2018-10-09T00:01:44.440Z,0.00
2018-10-09T00:02:44.467Z,0.00
2018-10-09T00:03:44.497Z,0.00
2018-10-09T00:04:44.528Z,0.00
2018-10-09T00:05:44.558Z,0.00
2018-10-09T00:06:44.588Z,0.00
2018-10-09T00:07:44.618Z,0.00
2018-10-09T00:08:44.649Z,0.00
2018-10-09T00:09:44.679Z,0.00
2018-10-09T00:10:44.711Z,0.00
2018-10-09T00:11:44.740Z,0.00
2018-10-09T00:12:44.770Z,0.00
2018-10-09T00:13:44.800Z,0.00
2018-10-09T00:14:44.829Z,0.00
2018-10-09T00:15:44.860Z,0.00
2018-10-09T00:16:44.892Z,0.00
2018-10-09T00:17:44.921Z,0.00
2018-10-09T00:18:44.951Z,0.00
2018-10-09T00:19:44.981Z,0.00
2018-10-09T00:20:45.013Z,0.00
2018-10-09T00:21:45.044Z,0.00
2018-10-09T00:22:45.072Z,0.00
2018-10-09T00:23:45.103Z,0.00
2018-10-09T00:24:45.133Z,0.00
2018-10-09T00:25:45.164Z,0.00
2018-10-09T00:26:45.195Z,0.00
2018-10-09T00:27:45.224Z,0.00
2018-10-09T00:28:45.254Z,0.00
2018-10-09T00:29:45.285Z,0.00
2018-10-09T00:30:45.314Z,0.00
2018-10-09T00:31:45.345Z,0.00
2018-10-09T00:32:45.375Z,0.00
2018-10-09T00:33:45.405Z,0.00
2018-10-09T00:34:45.435Z,0.00
2018-10-09T00:35:45.468Z,0.00
2018-10-09T00:36:45.496Z,0.00
2018-10-09T00:37:45.527Z,0.00
2018-10-09T00:38:45.556Z,0.00
2018-10-09T00:39:45.587Z,0.00
2018-10-09T00:40:45.617Z,0.00
2018-10-09T00:41:45.648Z,0.00
2018-10-09T00:42:45.677Z,0.00
2018-10-09T00:43:45.707Z,0.00
2018-10-09T00:44:45.738Z,0.00
2018-10-09T00:45:45.770Z,0.00
2018-10-09T00:46:45.797Z,0.00
2018-10-09T00:47:45.828Z,0.00
2018-10-09T00:48:45.860Z,0.00
2018-10-09T00:49:45.888Z,0.00
2018-10-09T00:50:45.917Z,0.00
2018-10-09T00:51:45.948Z,0.00
2018-10-09T00:52:45.979Z,0.00
2018-10-09T00:53:46.009Z,0.00
2018-10-09T00:54:46.039Z,0.00
2018-10-09T00:55:46.070Z,0.00
2018-10-09T00:56:46.098Z,0.00
2018-10-09T00:57:46.131Z,0.00
2018-10-09T00:58:46.159Z,0.00
2018-10-09T00:59:46.189Z,0.00
2018-10-09T01:00:46.218Z,0.00
2018-10-09T01:01:46.249Z,0.00
2018-10-09T01:02:46.278Z,0.00
2018-10-09T01:03:46.308Z,0.00
2018-10-09T01:04:46.340Z,0.00
2018-10-09T01:05:46.370Z,0.00
2018-10-09T01:06:46.399Z,0.00
2018-10-09T01:07:46.429Z,0.00
2018-10-09T01:08:46.459Z,0.00
2018-10-09T01:09:46.493Z,0.00
2018-10-09T01:10:46.519Z,0.00
2018-10-09T01:11:46.549Z,0.00
2018-10-09T01:12:46.578Z,0.00
2018-10-09T01:13:46.609Z,0.00
2018-10-09T01:14:46.637Z,0.00
2018-10-09T01:15:46.668Z,0.00
2018-10-09T01:16:46.698Z,0.00
2018-10-09T01:17:46.728Z,0.00
2018-10-09T01:18:46.760Z,0.00
2018-10-09T01:19:46.787Z,0.00
2018-10-09T01:20:46.817Z,0.00
2018-10-09T01:21:46.847Z,0.00
2018-10-09T01:22:46.877Z,0.00
2018-10-09T01:23:46.907Z,0.00
2018-10-09T01:24:46.937Z,0.00
2018-10-09T01:25:46.969Z,0.00
2018-10-09T01:26:46.999Z,0.00
2018-10-09T01:27:47.026Z,0.00
2018-10-09T01:28:47.057Z,0.00
2018-10-09T01:29:47.088Z,0.00
2018-10-09T01:30:47.117Z,0.00
2018-10-09T01:31:47.145Z,0.00
2018-10-09T01:32:47.176Z,0.00
2018-10-09T01:33:47.205Z,0.00
2018-10-09T01:34:47.237Z,0.00
2018-10-09T01:35:47.265Z,0.00
2018-10-09T01:36:47.295Z,0.00
2018-10-09T01:37:47.325Z,0.00
2018-10-09T01:38:47.355Z,0.00
2018-10-09T01:39:47.384Z,0.00
2018-10-09T01:40:47.416Z,0.00
2018-10-09T01:41:47.446Z,0.00
2018-10-09T01:42:47.473Z,0.00
2018-10-09T01:43:47.504Z,0.00
2018-10-09T01:44:47.534Z,0.00
2018-10-09T01:45:47.564Z,0.00
2018-10-09T01:46:47.593Z,0.00
2018-10-09T01:47:47.630Z,0.00
2018-10-09T01:48:47.654Z,0.00
2018-10-09T01:49:47.687Z,0.00
2018-10-09T01:50:47.713Z,0.00
2018-10-09T01:51:47.744Z,0.00
2018-10-09T01:52:47.774Z,0.00
2018-10-09T01:53:47.805Z,0.00
2018-10-09T01:54:47.838Z,0.00
2018-10-09T01:55:47.865Z,0.00
2018-10-09T01:56:47.896Z,0.00
2018-10-09T01:57:47.923Z,0.00
2018-10-09T01:58:47.953Z,0.00
2018-10-09T01:59:47.983Z,0.00
2018-10-09T02:00:48.013Z,0.00
2018-10-09T02:01:48.043Z,0.00
2018-10-09T02:02:48.072Z,0.00
2018-10-09T02:03:48.101Z,0.00
2018-10-09T02:04:48.132Z,0.00
2018-10-09T02:05:48.164Z,0.00
2018-10-09T02:06:48.192Z,0.00
2018-10-09T02:07:48.222Z,0.00
2018-10-09T02:08:48.252Z,0.00
2018-10-09T02:09:48.282Z,0.00
2018-10-09T02:10:48.312Z,0.00
2018-10-09T02:11:48.347Z,0.00
2018-10-09T02:12:48.372Z,0.00
2018-10-09T02:13:48.402Z,0.00
2018-10-09T02:14:48.431Z,0.00
2018-10-09T02:15:48.462Z,0.00
2018-10-09T02:16:48.492Z,0.00
2018-10-09T02:17:48.521Z,0.00
2018-10-09T02:18:48.550Z,0.00
2018-10-09T02:19:48.581Z,0.00
2018-10-09T02:20:48.611Z,0.00
2018-10-09T02:21:48.646Z,0.00
2018-10-09T02:22:48.671Z,0.00
2018-10-09T02:23:48.700Z,0.00
2018-10-09T02:24:48.734Z,0.00
2018-10-09T02:25:48.760Z,0.00
2018-10-09T02:26:48.790Z,0.00
2018-10-09T02:27:48.820Z,0.00
2018-10-09T02:28:48.852Z,0.00
2018-10-09T02:29:48.880Z,0.00
2018-10-09T02:30:48.909Z,0.00
2018-10-09T02:31:48.940Z,0.00
2018-10-09T02:32:48.974Z,0.00
2018-10-09T02:33:49.004Z,0.00
2018-10-09T02:34:49.029Z,0.00
2018-10-09T02:35:49.062Z,0.00
2018-10-09T02:36:49.090Z,0.00
2018-10-09T02:37:49.120Z,0.00
2018-10-09T02:38:49.155Z,0.00
2018-10-09T02:39:49.179Z,0.00
2018-10-09T02:40:49.210Z,0.00
2018-10-09T02:41:49.240Z,0.00
2018-10-09T02:42:49.315Z,0.00
2018-10-09T02:43:49.298Z,0.00
2018-10-09T02:44:49.329Z,0.00
2018-10-09T02:45:50.061Z,0.00
2018-10-09T02:46:49.389Z,0.00
2018-10-09T02:47:49.422Z,0.00
2018-10-09T02:48:49.449Z,0.00
2018-10-09T02:49:49.480Z,0.00
2018-10-09T02:50:49.512Z,0.00
2018-10-09T02:51:49.539Z,0.00
2018-10-09T02:52:49.626Z,0.00
2018-10-09T02:53:49.600Z,0.00
2018-10-09T02:54:49.628Z,0.00
2018-10-09T02:55:49.659Z,0.00
2018-10-09T02:56:49.690Z,0.00
2018-10-09T02:57:49.721Z,0.00
2018-10-09T02:58:49.749Z,0.00
2018-10-09T02:59:49.780Z,0.00
2018-10-09T03:00:49.810Z,0.00
2018-10-09T03:01:49.840Z,0.00
2018-10-09T03:02:49.871Z,0.00
2018-10-09T03:03:49.907Z,0.00
2018-10-09T03:04:49.931Z,0.00
2018-10-09T03:05:49.961Z,0.00
2018-10-09T03:06:49.990Z,0.00
2018-10-09T03:07:50.020Z,0.00
2018-10-09T03:08:50.051Z,0.00
2018-10-09T03:09:50.085Z,0.00
2018-10-09T03:10:50.116Z,0.00
2018-10-09T03:11:50.141Z,0.00
2018-10-09T03:12:50.171Z,0.00
2018-10-09T03:13:50.202Z,0.00
2018-10-09T03:14:50.231Z,0.00
2018-10-09T03:15:50.262Z,0.00
2018-10-09T03:16:50.292Z,0.00
2018-10-09T03:17:50.322Z,0.00
2018-10-09T03:18:50.352Z,0.00
2018-10-09T03:19:50.382Z,0.00
2018-10-09T03:20:50.530Z,0.00
2018-10-09T03:21:50.443Z,0.00
2018-10-09T03:22:50.473Z,0.00
2018-10-09T03:23:50.503Z,0.00
2018-10-09T03:24:50.535Z,0.00
2018-10-09T03:25:50.564Z,0.00
2018-10-09T03:26:50.592Z,0.00
2018-10-09T03:27:50.623Z,0.00
2018-10-09T03:28:50.654Z,0.00
2018-10-09T03:29:50.684Z,0.00
2018-10-09T03:30:50.715Z,0.00
2018-10-09T03:31:50.794Z,0.00
2018-10-09T03:32:50.774Z,0.00
2018-10-09T03:33:50.805Z,0.00
2018-10-09T03:34:50.834Z,0.00
2018-10-09T03:35:50.865Z,0.00
2018-10-09T03:36:50.897Z,0.00
2018-10-09T03:37:50.926Z,0.00
2018-10-09T03:38:50.959Z,0.00
2018-10-09T03:39:50.988Z,0.00
2018-10-09T03:40:51.016Z,0.00
2018-10-09T03:41:51.046Z,0.00
2018-10-09T03:42:51.078Z,0.00
2018-10-09T03:43:51.106Z,0.00
2018-10-09T03:44:51.136Z,0.00
2018-10-09T03:45:51.167Z,0.00
2018-10-09T03:46:51.198Z,0.00
2018-10-09T03:47:51.227Z,0.00
2018-10-09T03:48:51.257Z,0.00
2018-10-09T03:49:51.287Z,0.00
2018-10-09T03:50:51.317Z,0.00
2018-10-09T03:51:51.348Z,0.00
2018-10-09T03:52:51.378Z,0.00
2018-10-09T03:53:51.409Z,0.00
2018-10-09T03:54:51.439Z,0.00
2018-10-09T03:55:51.468Z,0.00
2018-10-09T03:56:51.500Z,0.00
2018-10-09T03:57:51.530Z,0.00
2018-10-09T03:58:51.559Z,0.00
2018-10-09T03:59:51.589Z,0.00
2018-10-09T04:00:51.620Z,0.00
2018-10-09T04:01:51.650Z,0.00
2018-10-09T04:02:51.683Z,0.00
2018-10-09T04:03:51.713Z,0.00
2018-10-09T04:04:51.741Z,0.00
2018-10-09T04:05:51.771Z,0.00
2018-10-09T04:06:51.800Z,0.00
2018-10-09T04:07:51.832Z,0.00
2018-10-09T04:08:51.895Z,0.00
2018-10-09T04:09:51.892Z,0.00
2018-10-09T04:10:51.922Z,0.00
2018-10-09T04:11:51.952Z,0.00
2018-10-09T04:12:52.152Z,0.00
2018-10-09T04:13:52.016Z,0.00
2018-10-09T04:14:52.043Z,0.00
2018-10-09T04:15:52.073Z,0.00
2018-10-09T04:16:52.104Z,0.00
2018-10-09T04:17:52.134Z,0.00
2018-10-09T04:18:52.167Z,0.00
2018-10-09T04:19:52.194Z,0.00
2018-10-09T04:20:52.223Z,0.00
2018-10-09T04:21:52.255Z,0.00
2018-10-09T04:22:52.284Z,0.00
2018-10-09T04:23:52.315Z,0.00
2018-10-09T04:24:52.349Z,0.00
2018-10-09T04:25:52.375Z,0.00
2018-10-09T04:26:52.405Z,0.00
2018-10-09T04:27:52.435Z,0.00
2018-10-09T04:28:52.466Z,0.00
2018-10-09T04:29:52.497Z,0.00
2018-10-09T04:30:52.526Z,0.00
2018-10-09T04:31:52.557Z,0.00
2018-10-09T04:32:52.588Z,0.00
2018-10-09T04:33:52.618Z,0.00
2018-10-09T04:34:52.647Z,0.00
2018-10-09T04:35:52.678Z,0.00
2018-10-09T04:36:52.708Z,0.00
2018-10-09T04:37:52.742Z,0.00
2018-10-09T04:38:52.768Z,0.00
2018-10-09T04:39:52.799Z,0.00
2018-10-09T04:40:52.829Z,0.00
2018-10-09T04:41:52.859Z,0.00
2018-10-09T04:42:52.889Z,0.00
2018-10-09T04:43:52.922Z,0.00
2018-10-09T04:44:52.950Z,0.00
2018-10-09T04:45:52.980Z,0.00
2018-10-09T04:46:53.010Z,0.00
2018-10-09T04:47:53.041Z,0.00
2018-10-09T04:48:53.071Z,0.00
2018-10-09T04:49:53.154Z,0.00
2018-10-09T04:50:53.131Z,0.00
2018-10-09T04:51:53.162Z,0.00
2018-10-09T04:52:53.206Z,0.00
2018-10-09T04:53:53.222Z,0.00
2018-10-09T04:54:53.255Z,0.00
2018-10-09T04:55:53.282Z,0.00
2018-10-09T04:56:53.319Z,0.00
2018-10-09T04:57:53.343Z,0.00
2018-10-09T04:58:53.372Z,0.00
2018-10-09T04:59:53.403Z,0.00
2018-10-09T05:00:53.435Z,0.00
2018-10-09T05:01:53.464Z,0.00
2018-10-09T05:02:53.494Z,0.00
2018-10-09T05:03:53.525Z,0.00
2018-10-09T05:04:53.555Z,0.00
2018-10-09T05:05:53.585Z,0.00
2018-10-09T05:06:53.615Z,0.00
2018-10-09T05:07:53.645Z,0.00
2018-10-09T05:08:53.679Z,4.00
2018-10-09T05:09:53.706Z,4.00
2018-10-09T05:10:53.735Z,0.00
2018-10-09T05:11:53.766Z,4.00
2018-10-09T05:12:53.797Z,0.00
2018-10-09T05:13:53.833Z,4.00
2018-10-09T05:14:53.856Z,4.00
2018-10-09T05:15:53.887Z,8.00
2018-10-09T05:16:53.917Z,8.00
2018-10-09T05:17:54.130Z,8.00
2018-10-09T05:18:53.982Z,12.00
2018-10-09T05:19:54.007Z,16.00
2018-10-09T05:20:54.038Z,16.00
2018-10-09T05:21:54.068Z,20.00
2018-10-09T05:22:54.098Z,24.00
2018-10-09T05:23:54.128Z,28.00
2018-10-09T05:24:54.158Z,32.00
2018-10-09T05:25:54.188Z,44.00
2018-10-09T05:26:54.221Z,52.00
2018-10-09T05:27:54.252Z,60.00
2018-10-09T05:28:54.279Z,64.00
2018-10-09T05:29:54.309Z,76.00
2018-10-09T05:30:54.373Z,92.00
2018-10-09T05:31:54.369Z,104.00
2018-10-09T05:32:54.398Z,116.00
2018-10-09T05:33:54.428Z,124.00
2018-10-09T05:34:54.457Z,136.00
2018-10-09T05:35:54.488Z,152.00
2018-10-09T05:36:54.518Z,164.00
2018-10-09T05:37:54.548Z,180.00
2018-10-09T05:38:54.578Z,200.00
2018-10-09T05:39:54.607Z,232.00
2018-10-09T05:40:54.639Z,252.00
2018-10-09T05:41:54.668Z,284.00
2018-10-09T05:42:54.698Z,324.00
2018-10-09T05:43:54.727Z,360.00
2018-10-09T05:44:54.758Z,396.00
2018-10-09T05:45:54.788Z,436.00
2018-10-09T05:46:54.818Z,460.00
2018-10-09T05:47:54.848Z,488.00
2018-10-09T05:48:54.878Z,528.00
2018-10-09T05:49:54.907Z,572.00
2018-10-09T05:50:54.939Z,616.00
2018-10-09T05:51:54.967Z,680.00
2018-10-09T05:52:54.997Z,732.00
2018-10-09T05:53:55.027Z,796.00
2018-10-09T05:54:55.057Z,876.00
2018-10-09T05:55:55.089Z,952.00
2018-10-09T05:56:55.117Z,1032.00
2018-10-09T05:57:55.191Z,1104.00
2018-10-09T05:58:55.177Z,1148.00
2018-10-09T05:59:55.206Z,1192.00
2018-10-09T06:00:55.237Z,1232.00
2018-10-09T06:01:55.267Z,1264.00
2018-10-09T06:02:55.296Z,1304.00
2018-10-09T06:03:55.327Z,1340.00
2018-10-09T06:04:55.360Z,1360.00
2018-10-09T06:05:55.421Z,1404.00
2018-10-09T06:06:55.415Z,1412.00
2018-10-09T06:07:55.446Z,1472.00
2018-10-09T06:08:55.479Z,1544.00
2018-10-09T06:09:55.507Z,1596.00
2018-10-09T06:10:55.537Z,1636.00
2018-10-09T06:11:55.567Z,1664.00
2018-10-09T06:12:55.600Z,1692.00
2018-10-09T06:13:55.626Z,1692.00
2018-10-09T06:14:55.656Z,1656.00
2018-10-09T06:15:55.745Z,1672.00
2018-10-09T06:16:55.717Z,1752.00
2018-10-09T06:17:55.747Z,1808.00
2018-10-09T06:18:55.778Z,1796.00
2018-10-09T06:19:55.806Z,1744.00
2018-10-09T06:20:55.838Z,1788.00
2018-10-09T06:21:55.867Z,1856.00
2018-10-09T06:22:55.900Z,1952.00
2018-10-09T06:23:55.927Z,2056.00
2018-10-09T06:24:55.957Z,2132.00
2018-10-09T06:25:55.988Z,2240.00
2018-10-09T06:26:56.017Z,2372.00
2018-10-09T06:27:56.067Z,2524.00
2018-10-09T06:28:56.078Z,2568.00
2018-10-09T06:29:56.108Z,2680.00
2018-10-09T06:30:56.138Z,2856.00
2018-10-09T06:31:56.168Z,3036.00
2018-10-09T06:32:56.198Z,3208.00
2018-10-09T06:33:56.247Z,3380.00
2018-10-09T06:34:56.258Z,3644.00
2018-10-09T06:35:56.288Z,3832.00
2018-10-09T06:36:56.318Z,4028.00
2018-10-09T06:37:56.350Z,4256.00
2018-10-09T06:38:56.379Z,4448.00
2018-10-09T06:39:56.409Z,4692.00
2018-10-09T06:40:56.439Z,4780.00
2018-10-09T06:41:56.489Z,4884.00
2018-10-09T06:42:56.647Z,4956.00
2018-10-09T06:43:56.529Z,5024.00
2018-10-09T06:44:56.560Z,5236.00
2018-10-09T06:45:56.594Z,5488.00
2018-10-09T06:46:56.625Z,5752.00
2018-10-09T06:47:56.653Z,6028.00
2018-10-09T06:48:56.681Z,6112.00
2018-10-09T06:49:56.712Z,6000.00
2018-10-09T06:50:56.742Z,6164.00
2018-10-09T06:51:56.773Z,6344.00
2018-10-09T06:52:56.804Z,6524.00
2018-10-09T06:53:57.041Z,6672.00
2018-10-09T06:54:56.920Z,6752.00
2018-10-09T06:55:56.895Z,6876.00
2018-10-09T06:56:56.976Z,6996.00
2018-10-09T06:57:56.957Z,7164.00
2018-10-09T06:58:56.987Z,7416.00
2018-10-09T06:59:57.021Z,7600.00
2018-10-09T07:00:57.050Z,7728.00
2018-10-09T07:01:57.081Z,7860.00
2018-10-09T07:02:57.114Z,7924.00
2018-10-09T07:03:57.141Z,8088.00
2018-10-09T07:04:57.177Z,8196.00
2018-10-09T07:05:57.207Z,8368.00
2018-10-09T07:06:57.234Z,8480.00
2018-10-09T07:07:57.266Z,8484.00
2018-10-09T07:08:57.297Z,8400.00
2018-10-09T07:09:57.330Z,7892.00
2018-10-09T07:10:57.417Z,8160.00
2018-10-09T07:11:57.393Z,8672.00
2018-10-09T07:12:57.424Z,9072.00
2018-10-09T07:13:57.454Z,9384.00
2018-10-09T07:14:57.485Z,9572.00
2018-10-09T07:15:57.518Z,9724.00
2018-10-09T07:16:57.613Z,10016.00
2018-10-09T07:17:57.587Z,10208.00
2018-10-09T07:18:57.614Z,10300.00
2018-10-09T07:19:57.644Z,10468.00
2018-10-09T07:20:57.675Z,10712.00
2018-10-09T07:21:57.708Z,10680.00
2018-10-09T07:22:57.740Z,10608.00
2018-10-09T07:23:57.773Z,11200.00
2018-10-09T07:24:57.804Z,11252.00
2018-10-09T07:25:57.836Z,11016.00
2018-10-09T07:26:57.867Z,11132.00
2018-10-09T07:27:57.961Z,10996.00
2018-10-09T07:28:57.934Z,10888.00
2018-10-09T07:29:57.969Z,11224.00
2018-10-09T07:30:57.996Z,11216.00
2018-10-09T07:31:58.031Z,10976.00
2018-10-09T07:32:58.062Z,10844.00
2018-10-09T07:33:58.095Z,10524.00
2018-10-09T07:34:58.129Z,10432.00
2018-10-09T07:35:58.160Z,10572.00
2018-10-09T07:36:58.195Z,10688.00
2018-10-09T07:37:58.233Z,10728.00
2018-10-09T07:38:58.258Z,10920.00
2018-10-09T07:39:58.293Z,11084.00
2018-10-09T07:40:58.326Z,11092.00
2018-10-09T07:41:58.360Z,10968.00
2018-10-09T07:42:58.391Z,10852.00
2018-10-09T07:43:58.522Z,10704.00
2018-10-09T07:44:58.459Z,10560.00
2018-10-09T07:45:58.491Z,10516.00
2018-10-09T07:46:58.525Z,10520.00
2018-10-09T07:47:58.559Z,10812.00
2018-10-09T07:48:58.593Z,10720.00
2018-10-09T07:49:58.625Z,11172.00
2018-10-09T07:50:58.685Z,11244.00
2018-10-09T07:51:58.693Z,11312.00
2018-10-09T07:52:58.798Z,11404.00
2018-10-09T07:53:58.760Z,11412.00
2018-10-09T07:54:58.792Z,11696.00
2018-10-09T07:55:58.833Z,11780.00
2018-10-09T07:56:58.861Z,11204.00
2018-10-09T07:57:58.895Z,11556.00
2018-10-09T07:58:58.928Z,12076.00
2018-10-09T07:59:58.963Z,12520.00
2018-10-09T08:00:58.996Z,13220.00
2018-10-09T08:01:59.032Z,14996.00
2018-10-09T08:02:59.064Z,16640.00
2018-10-09T08:03:59.098Z,16736.00
2018-10-09T08:04:59.132Z,17440.00
2018-10-09T08:05:59.318Z,15456.00
2018-10-09T08:06:59.202Z,14332.00
2018-10-09T08:07:59.239Z,13292.00
2018-10-09T08:08:59.270Z,16896.00
2018-10-09T08:09:59.305Z,14132.00
2018-10-09T08:10:59.364Z,15484.00
2018-10-09T08:11:59.373Z,19328.00
2018-10-09T08:12:59.409Z,19232.00
2018-10-09T08:13:59.447Z,18944.00
2018-10-09T08:14:59.476Z,20992.00
2018-10-09T08:15:59.514Z,23168.00
2018-10-09T08:16:59.547Z,22976.00
2018-10-09T08:17:59.583Z,24032.00
2018-10-09T08:18:59.617Z,25344.00
2018-10-09T08:19:59.652Z,26464.00
2018-10-09T08:20:59.689Z,28416.00
2018-10-09T08:21:59.724Z,26176.00
2018-10-09T08:22:59.857Z,29536.00
2018-10-09T08:23:59.793Z,28032.00
2018-10-09T08:24:59.828Z,29216.00
2018-10-09T08:25:59.865Z,29472.00
2018-10-09T08:26:59.900Z,29600.00
2018-10-09T08:27:59.987Z,29856.00
2018-10-09T08:28:59.980Z,28128.00
2018-10-09T08:30:00.009Z,30976.00
2018-10-09T08:31:00.044Z,31648.00
2018-10-09T08:32:00.080Z,32192.00
2018-10-09T08:33:00.117Z,34208.00
2018-10-09T08:34:00.155Z,36320.00
2018-10-09T08:35:00.188Z,34688.00
2018-10-09T08:36:00.226Z,33376.00
2018-10-09T08:37:00.264Z,31808.00
2018-10-09T08:38:00.300Z,29376.00
2018-10-09T08:39:00.335Z,25280.00
2018-10-09T08:40:00.406Z,24928.00
2018-10-09T08:41:00.410Z,29984.00
2018-10-09T08:42:00.446Z,36640.00
2018-10-09T08:43:00.483Z,38592.00
2018-10-09T08:44:00.520Z,40800.00
2018-10-09T08:45:00.558Z,42272.00
2018-10-09T08:46:00.595Z,42176.00
2018-10-09T08:47:00.633Z,38880.00
2018-10-09T08:48:00.670Z,35872.00
2018-10-09T08:49:00.706Z,38592.00
2018-10-09T08:50:00.746Z,42240.00
2018-10-09T08:51:00.783Z,42112.00
2018-10-09T08:52:00.851Z,41376.00
2018-10-09T08:53:00.859Z,41536.00
2018-10-09T08:54:00.897Z,42432.00
2018-10-09T08:55:00.939Z,43264.00
2018-10-09T08:56:00.972Z,41856.00
2018-10-09T08:57:01.011Z,43456.00
2018-10-09T08:58:01.049Z,46656.00
2018-10-09T08:59:01.158Z,45440.00
2018-10-09T09:00:01.126Z,43552.00
2018-10-09T09:01:01.165Z,39136.00
2018-10-09T09:02:01.206Z,35968.00
2018-10-09T09:03:01.244Z,38528.00
2018-10-09T09:04:01.284Z,39136.00
2018-10-09T09:05:01.322Z,37728.00
2018-10-09T09:06:01.365Z,35840.00
2018-10-09T09:07:01.401Z,38720.00
2018-10-09T09:08:01.441Z,34784.00
2018-10-09T09:09:01.488Z,35552.00
2018-10-09T09:10:01.522Z,35520.00
2018-10-09T09:11:01.559Z,35552.00
2018-10-09T09:12:01.599Z,32480.00
2018-10-09T09:13:01.639Z,32512.00
2018-10-09T09:14:01.698Z,30944.00
2018-10-09T09:15:01.721Z,29696.00
2018-10-09T09:16:01.760Z,31488.00
2018-10-09T09:17:01.800Z,32128.00
2018-10-09T09:18:01.840Z,33152.00
2018-10-09T09:19:01.878Z,31328.00
2018-10-09T09:20:01.919Z,30464.00
2018-10-09T09:21:01.995Z,29312.00
2018-10-09T09:22:02.000Z,29280.00
2018-10-09T09:23:02.041Z,28544.00
2018-10-09T09:24:02.085Z,29248.00
2018-10-09T09:25:02.126Z,29248.00
2018-10-09T09:26:02.195Z,30144.00
2018-10-09T09:27:02.319Z,32832.00
2018-10-09T09:28:02.244Z,32864.00
2018-10-09T09:29:02.289Z,36384.00
2018-10-09T09:30:02.329Z,36192.00
2018-10-09T09:31:02.371Z,36320.00
2018-10-09T09:32:02.411Z,37568.00
2018-10-09T09:33:02.516Z,41536.00
2018-10-09T09:34:02.498Z,50144.00
2018-10-09T09:35:02.534Z,59104.00
2018-10-09T09:36:02.578Z,61088.00
2018-10-09T09:37:02.620Z,63168.00
2018-10-09T09:38:02.665Z,63136.00
2018-10-09T09:39:02.766Z,61888.00
2018-10-09T09:40:02.747Z,57632.00
2018-10-09T09:41:02.789Z,60288.00
2018-10-09T09:42:02.833Z,56224.00
2018-10-09T09:43:02.878Z,53920.00
2018-10-09T09:44:02.919Z,51648.00
2018-10-09T09:45:02.962Z,59488.00
2018-10-09T09:46:03.009Z,58528.00
2018-10-09T09:47:03.061Z,54496.00
2018-10-09T09:48:03.092Z,64480.00
2018-10-09T09:49:03.137Z,73216.00
2018-10-09T09:50:03.181Z,75328.00
2018-10-09T09:51:03.224Z,78624.00
2018-10-09T09:52:03.319Z,79520.00
2018-10-09T09:53:03.314Z,78880.00
2018-10-09T09:54:03.359Z,78752.00
2018-10-09T09:55:03.402Z,78592.00
2018-10-09T09:56:03.447Z,79872.00
2018-10-09T09:57:03.494Z,79904.00
2018-10-09T09:58:03.596Z,79840.00
2018-10-09T09:59:03.660Z,79008.00
2018-10-09T10:00:03.628Z,77664.00
2018-10-09T10:01:03.877Z,77408.00
2018-10-09T10:02:03.721Z,72608.00
2018-10-09T10:03:03.767Z,69344.00
2018-10-09T10:04:03.814Z,76864.00
2018-10-09T10:05:03.862Z,80192.00
2018-10-09T10:06:03.907Z,83840.00
2018-10-09T10:07:03.953Z,81984.00
2018-10-09T10:08:04.002Z,80384.00
2018-10-09T10:09:04.080Z,83200.00
2018-10-09T10:10:04.096Z,86144.00
2018-10-09T10:11:04.147Z,84128.00
2018-10-09T10:12:04.192Z,84640.00
2018-10-09T10:13:04.239Z,82464.00
2018-10-09T10:14:04.288Z,81312.00
2018-10-09T10:15:04.334Z,81920.00
2018-10-09T10:16:04.384Z,82624.00
2018-10-09T10:17:04.431Z,81984.00
2018-10-09T10:18:04.481Z,80928.00
2018-10-09T10:19:04.527Z,79968.00
2018-10-09T10:20:04.575Z,81440.00
2018-10-09T10:21:04.626Z,79136.00
2018-10-09T10:22:04.674Z,78048.00
2018-10-09T10:23:04.721Z,80096.00
2018-10-09T10:24:04.769Z,82368.00
2018-10-09T10:25:04.818Z,83424.00
2018-10-09T10:26:04.867Z,85152.00
2018-10-09T10:27:04.916Z,86560.00
2018-10-09T10:28:04.963Z,85984.00
2018-10-09T10:29:05.054Z,84896.00
2018-10-09T10:30:05.063Z,85856.00
2018-10-09T10:31:05.110Z,86816.00
2018-10-09T10:32:05.160Z,84320.00
2018-10-09T10:33:05.210Z,85024.00
2018-10-09T10:34:05.261Z,84832.00
2018-10-09T10:35:05.307Z,85152.00
2018-10-09T10:36:05.355Z,85440.00
2018-10-09T10:37:05.404Z,84256.00
2018-10-09T10:38:05.454Z,84736.00
2018-10-09T10:39:05.502Z,86976.00
2018-10-09T10:40:05.553Z,84608.00
2018-10-09T10:41:05.601Z,86240.00
2018-10-09T10:42:05.714Z,86880.00
2018-10-09T10:43:05.700Z,84768.00
2018-10-09T10:44:05.752Z,84032.00
2018-10-09T10:45:05.799Z,83040.00
2018-10-09T10:46:05.854Z,82912.00
2018-10-09T10:47:05.899Z,84896.00
2018-10-09T10:48:05.948Z,86048.00
2018-10-09T10:49:06.132Z,85728.00
2018-10-09T10:50:06.049Z,83296.00
2018-10-09T10:51:06.099Z,78976.00
2018-10-09T10:52:06.149Z,74688.00
2018-10-09T10:53:06.200Z,81504.00
2018-10-09T10:54:06.249Z,85600.00
2018-10-09T10:55:06.370Z,87392.00
2018-10-09T10:56:06.348Z,88672.00
2018-10-09T10:57:06.399Z,87328.00
2018-10-09T10:58:06.449Z,82368.00
2018-10-09T10:59:06.499Z,81184.00
2018-10-09T11:00:06.550Z,81216.00
2018-10-09T11:01:06.600Z,81088.00
2018-10-09T11:02:06.654Z,84096.00
2018-10-09T11:03:06.703Z,84448.00
2018-10-09T11:04:06.751Z,80704.00
2018-10-09T11:05:06.802Z,83392.00
2018-10-09T11:06:06.854Z,85984.00
2018-10-09T11:07:06.904Z,84384.00
2018-10-09T11:08:07.004Z,85088.00
2018-10-09T11:09:07.006Z,87584.00
2018-10-09T11:10:07.081Z,86848.00
2018-10-09T11:12:07.158Z,79872.00
2018-10-09T11:13:07.209Z,77504.00
2018-10-09T11:15:07.311Z,77664.00
2018-10-09T11:16:07.360Z,79104.00
2018-10-09T11:17:07.413Z,79488.00
2018-10-09T11:18:07.464Z,77952.00
2018-10-09T11:19:07.514Z,75936.00
2018-10-09T11:20:07.565Z,74688.00
2018-10-09T11:21:07.653Z,76928.00
2018-10-09T11:22:07.668Z,77344.00
2018-10-09T11:23:07.718Z,77920.00
2018-10-09T11:24:07.769Z,75392.00
2018-10-09T11:25:07.822Z,75392.00
2018-10-09T11:26:07.893Z,77856.00
2018-10-09T11:27:07.948Z,79456.00
2018-10-09T11:28:07.974Z,79328.00
2018-10-09T11:29:08.355Z,83168.00
2018-10-09T11:30:08.101Z,84320.00
2018-10-09T11:31:08.357Z,86816.00
2018-10-09T11:32:08.202Z,88352.00
2018-10-09T11:33:08.260Z,84416.00
2018-10-09T11:34:08.304Z,84128.00
2018-10-09T11:35:08.661Z,92640.00
2018-10-09T11:36:08.405Z,98592.00
2018-10-09T11:38:08.512Z,104352.00
2018-10-09T11:39:08.564Z,103680.00
2018-10-09T11:40:08.589Z,97088.00
2018-10-09T11:42:08.693Z,98880.00
2018-10-09T11:43:08.743Z,102848.00
2018-10-09T11:44:08.798Z,101408.00
2018-10-09T11:45:08.847Z,96768.00
2018-10-09T11:46:08.898Z,98272.00
2018-10-09T11:47:08.948Z,100512.00
2018-10-09T11:48:09.000Z,99680.00
2018-10-09T11:49:09.051Z,99872.00
2018-10-09T11:50:09.106Z,103808.00
2018-10-09T11:51:09.156Z,106656.00
2018-10-09T11:52:09.204Z,108960.00
2018-10-09T11:53:09.257Z,104832.00
2018-10-09T11:54:09.312Z,100064.00
2018-10-09T11:55:09.358Z,101952.00
2018-10-09T11:56:09.409Z,100736.00
2018-10-09T11:57:09.462Z,95872.00
2018-10-09T11:58:09.539Z,96640.00
2018-10-09T11:59:09.752Z,96928.00
2018-10-09T12:00:09.615Z,99520.00
2018-10-09T12:01:09.666Z,99584.00
2018-10-09T12:02:09.717Z,100448.00
2018-10-09T12:03:09.768Z,97824.00
2018-10-09T12:04:09.820Z,97408.00
2018-10-09T12:05:09.873Z,90560.00
2018-10-09T12:06:09.923Z,73504.00
2018-10-09T12:07:09.975Z,68224.00
2018-10-09T12:08:10.056Z,65248.00
2018-10-09T12:09:10.075Z,77120.00
2018-10-09T12:10:10.127Z,82240.00
2018-10-09T12:11:10.177Z,71360.00
2018-10-09T12:12:10.230Z,77632.00
2018-10-09T12:13:10.280Z,70368.00
2018-10-09T12:14:10.330Z,69536.00
2018-10-09T12:15:10.381Z,79808.00
2018-10-09T12:16:10.430Z,75296.00
2018-10-09T12:17:10.480Z,73440.00
2018-10-09T12:18:10.530Z,63296.00
2018-10-09T12:19:10.579Z,61344.00
2018-10-09T12:20:10.630Z,52544.00
2018-10-09T12:21:10.679Z,69056.00
2018-10-09T12:22:10.730Z,69248.00
2018-10-09T12:23:10.778Z,53376.00
2018-10-09T12:24:10.828Z,54400.00
2018-10-09T12:25:10.877Z,58080.00
2018-10-09T12:26:10.925Z,50528.00
2018-10-09T12:27:11.044Z,60192.00
2018-10-09T12:28:11.056Z,72576.00
2018-10-09T12:29:11.071Z,74368.00
2018-10-09T12:30:11.118Z,75232.00
2018-10-09T12:31:11.166Z,87040.00